sensor_id;sensor_type;location;lat;lon;timestamp;P1;durP1;ratioP1;P2;durP2;ratioP2
73672;SDS011;61972;19.480;-99.240;2023-02-28T00:01:22;8.63;;;5.57;;
73672;SDS011;61972;19.480;-99.240;2023-02-28T00:03:49;9.50;;;5.20;;
73672;SDS011;61972;19.480;-99.240;2023-02-28T00:06:15;10.07;;;4.70;;
73672;SDS011;61972;19.480;-99.240;2023-02-28T00:08:42;9.73;;;5.20;;
73672;SDS011;61972;19.480;-99.240;2023-02-28T00:11:09;8.07;;;4.95;;
73672;SDS011;61972;19.480;-99.240;2023-02-28T00:13:38;7.05;;;4.55;;
73672;SDS011;61972;19.480;-99.240;2023-02-28T00:16:08;7.20;;;4.90;;
73672;SDS011;61972;19.480;-99.240;2023-02-28T00:18:38;7.38;;;4.60;;
73672;SDS011;61972;19.480;-99.240;2023-02-28T00:21:05;9.03;;;4.60;;
73672;SDS011;61972;19.480;-99.240;2023-02-28T00:23:31;9.30;;;4.38;;
73672;SDS011;61972;19.480;-99.240;2023-02-28T00:25:58;8.35;;;4.97;;
73672;SDS011;61972;19.480;-99.240;2023-02-28T00:28:24;7.15;;;4.40;;
73672;SDS011;61972;19.480;-99.240;2023-02-28T00:30:51;10.45;;;4.78;;
73672;SDS011;61972;19.480;-99.240;2023-02-28T00:33:17;9.37;;;4.43;;
73672;SDS011;61972;19.480;-99.240;2023-02-28T00:35:43;6.97;;;4.60;;
73672;SDS011;61972;19.480;-99.240;2023-02-28T00:38:11;7.75;;;4.45;;
73672;SDS011;61972;19.480;-99.240;2023-02-28T00:40:38;14.20;;;4.80;;
73672;SDS011;61972;19.480;-99.240;2023-02-28T00:43:04;8.63;;;4.22;;
73672;SDS011;61972;19.480;-99.240;2023-02-28T00:45:30;6.40;;;4.30;;
73672;SDS011;61972;19.480;-99.240;2023-02-28T00:47:57;7.32;;;3.90;;
73672;SDS011;61972;19.480;-99.240;2023-02-28T00:50:23;10.73;;;4.60;;
73672;SDS011;61972;19.480;-99.240;2023-02-28T00:52:49;6.93;;;3.97;;
73672;SDS011;61972;19.480;-99.240;2023-02-28T00:55:15;9.70;;;4.35;;
73672;SDS011;61972;19.480;-99.240;2023-02-28T00:57:41;9.30;;;4.17;;
73672;SDS011;61972;19.480;-99.240;2023-02-28T01:00:08;9.23;;;4.28;;
73672;SDS011;61972;19.480;-99.240;2023-02-28T01:02:34;9.18;;;4.07;;
73672;SDS011;61972;19.480;-99.240;2023-02-28T01:05:00;8.23;;;4.45;;
73672;SDS011;61972;19.480;-99.240;2023-02-28T01:07:26;13.82;;;4.30;;
73672;SDS011;61972;19.480;-99.240;2023-02-28T01:09:52;17.43;;;4.67;;
73672;SDS011;61972;19.480;-99.240;2023-02-28T01:12:18;16.88;;;4.55;;
73672;SDS011;61972;19.480;-99.240;2023-02-28T01:14:44;36.88;;;5.43;;
73672;SDS011;61972;19.480;-99.240;2023-02-28T01:17:10;22.08;;;4.80;;
73672;SDS011;61972;19.480;-99.240;2023-02-28T01:19:36;15.80;;;4.80;;
73672;SDS011;61972;19.480;-99.240;2023-02-28T01:22:03;21.33;;;6.43;;
73672;SDS011;61972;19.480;-99.240;2023-02-28T01:24:30;15.05;;;6.40;;
73672;SDS011;61972;19.480;-99.240;2023-02-28T01:26:57;19.45;;;7.82;;
73672;SDS011;61972;19.480;-99.240;2023-02-28T01:29:23;18.25;;;8.13;;
73672;SDS011;61972;19.480;-99.240;2023-02-28T01:31:49;18.52;;;7.95;;
73672;SDS011;61972;19.480;-99.240;2023-02-28T01:34:15;24.90;;;8.73;;
73672;SDS011;61972;19.480;-99.240;2023-02-28T01:36:44;18.73;;;6.90;;
73672;SDS011;61972;19.480;-99.240;2023-02-28T01:39:11;22.92;;;7.28;;
73672;SDS011;61972;19.480;-99.240;2023-02-28T01:41:38;18.90;;;6.05;;
73672;SDS011;61972;19.480;-99.240;2023-02-28T01:44:06;19.90;;;5.20;;
73672;SDS011;61972;19.480;-99.240;2023-02-28T01:46:52;17.00;;;5.10;;
73672;SDS011;61972;19.480;-99.240;2023-02-28T01:49:18;23.60;;;5.40;;
73672;SDS011;61972;19.480;-99.240;2023-02-28T01:51:45;14.07;;;4.85;;
73672;SDS011;61972;19.480;-99.240;2023-02-28T01:54:21;20.95;;;4.88;;
73672;SDS011;61972;19.480;-99.240;2023-02-28T01:56:53;18.95;;;4.80;;
73672;SDS011;61972;19.480;-99.240;2023-02-28T01:59:25;15.20;;;4.47;;
73672;SDS011;61972;19.480;-99.240;2023-02-28T02:01:58;16.75;;;4.95;;
73672;SDS011;61972;19.480;-99.240;2023-02-28T02:04:26;16.83;;;4.95;;
73672;SDS011;61972;19.480;-99.240;2023-02-28T02:06:58;16.52;;;4.93;;
73672;SDS011;61972;19.480;-99.240;2023-02-28T02:09:25;15.13;;;4.70;;
73672;SDS011;61972;19.480;-99.240;2023-02-28T02:11:51;17.27;;;4.97;;
73672;SDS011;61972;19.480;-99.240;2023-02-28T02:17:20;13.10;;;5.18;;
73672;SDS011;61972;19.480;-99.240;2023-02-28T02:25:26;11.53;;;4.53;;
73672;SDS011;61972;19.480;-99.240;2023-02-28T02:42:31;14.70;;;4.70;;
73672;SDS011;61972;19.480;-99.240;2023-02-28T02:45:34;9.98;;;4.50;;
73672;SDS011;61972;19.480;-99.240;2023-02-28T02:48:06;12.65;;;4.22;;
73672;SDS011;61972;19.480;-99.240;2023-02-28T02:50:39;11.98;;;4.20;;
73672;SDS011;61972;19.480;-99.240;2023-02-28T02:53:47;11.20;;;4.13;;
73672;SDS011;61972;19.480;-99.240;2023-02-28T02:56:24;17.65;;;4.82;;
73672;SDS011;61972;19.480;-99.240;2023-02-28T02:58:54;12.70;;;3.97;;
73672;SDS011;61972;19.480;-99.240;2023-02-28T03:01:28;12.50;;;4.10;;
73672;SDS011;61972;19.480;-99.240;2023-02-28T03:03:57;19.40;;;4.05;;
73672;SDS011;61972;19.480;-99.240;2023-02-28T03:06:29;12.27;;;4.33;;
73672;SDS011;61972;19.480;-99.240;2023-02-28T03:08:55;17.95;;;4.35;;
73672;SDS011;61972;19.480;-99.240;2023-02-28T03:11:21;15.55;;;4.38;;
73672;SDS011;61972;19.480;-99.240;2023-02-28T03:16:28;15.20;;;4.13;;
73672;SDS011;61972;19.480;-99.240;2023-02-28T03:23:59;8.07;;;3.60;;
73672;SDS011;61972;19.480;-99.240;2023-02-28T03:26:32;12.05;;;3.70;;
73672;SDS011;61972;19.480;-99.240;2023-02-28T03:29:04;19.23;;;3.72;;
73672;SDS011;61972;19.480;-99.240;2023-02-28T03:34:56;18.52;;;3.80;;
73672;SDS011;61972;19.480;-99.240;2023-02-28T03:37:25;17.02;;;3.80;;
73672;SDS011;61972;19.480;-99.240;2023-02-28T03:39:59;11.10;;;3.40;;
73672;SDS011;61972;19.480;-99.240;2023-02-28T03:42:34;17.90;;;4.03;;
73672;SDS011;61972;19.480;-99.240;2023-02-28T03:45:19;14.23;;;4.20;;
73672;SDS011;61972;19.480;-99.240;2023-02-28T03:47:51;17.05;;;4.32;;
73672;SDS011;61972;19.480;-99.240;2023-02-28T03:50:24;12.43;;;4.13;;
73672;SDS011;61972;19.480;-99.240;2023-02-28T03:53:02;12.88;;;4.00;;
73672;SDS011;61972;19.480;-99.240;2023-02-28T03:55:42;14.95;;;4.05;;
73672;SDS011;61972;19.480;-99.240;2023-02-28T04:03:43;12.73;;;3.88;;
73672;SDS011;61972;19.480;-99.240;2023-02-28T04:06:13;11.48;;;3.63;;
73672;SDS011;61972;19.480;-99.240;2023-02-28T04:08:45;11.07;;;3.45;;
73672;SDS011;61972;19.480;-99.240;2023-02-28T04:11:20;13.60;;;3.70;;
73672;SDS011;61972;19.480;-99.240;2023-02-28T04:13:57;11.35;;;3.45;;
73672;SDS011;61972;19.480;-99.240;2023-02-28T04:16:23;10.32;;;4.00;;
73672;SDS011;61972;19.480;-99.240;2023-02-28T04:18:49;12.52;;;4.70;;
73672;SDS011;61972;19.480;-99.240;2023-02-28T04:21:15;11.73;;;4.88;;
73672;SDS011;61972;19.480;-99.240;2023-02-28T04:23:46;18.90;;;5.70;;
73672;SDS011;61972;19.480;-99.240;2023-02-28T04:26:12;10.85;;;5.28;;
73672;SDS011;61972;19.480;-99.240;2023-02-28T04:28:38;12.35;;;4.80;;
73672;SDS011;61972;19.480;-99.240;2023-02-28T04:31:04;10.75;;;4.57;;
73672;SDS011;61972;19.480;-99.240;2023-02-28T04:33:34;14.98;;;7.82;;
73672;SDS011;61972;19.480;-99.240;2023-02-28T04:36:07;14.67;;;7.23;;
73672;SDS011;61972;19.480;-99.240;2023-02-28T04:38:34;20.02;;;9.45;;
73672;SDS011;61972;19.480;-99.240;2023-02-28T04:41:02;23.40;;;10.23;;
73672;SDS011;61972;19.480;-99.240;2023-02-28T04:43:38;24.70;;;10.77;;
73672;SDS011;61972;19.480;-99.240;2023-02-28T04:46:04;33.50;;;11.98;;
73672;SDS011;61972;19.480;-99.240;2023-02-28T04:48:36;34.40;;;11.93;;
73672;SDS011;61972;19.480;-99.240;2023-02-28T04:51:06;33.65;;;10.93;;
73672;SDS011;61972;19.480;-99.240;2023-02-28T04:53:35;26.58;;;11.10;;
73672;SDS011;61972;19.480;-99.240;2023-02-28T04:58:56;27.63;;;8.65;;
73672;SDS011;61972;19.480;-99.240;2023-02-28T05:01:26;28.13;;;8.20;;
73672;SDS011;61972;19.480;-99.240;2023-02-28T05:03:55;27.27;;;8.57;;
73672;SDS011;61972;19.480;-99.240;2023-02-28T05:06:26;24.10;;;7.15;;
73672;SDS011;61972;19.480;-99.240;2023-02-28T05:09:09;26.02;;;7.32;;
73672;SDS011;61972;19.480;-99.240;2023-02-28T05:11:44;22.50;;;7.38;;
73672;SDS011;61972;19.480;-99.240;2023-02-28T05:14:13;16.00;;;6.40;;
73672;SDS011;61972;19.480;-99.240;2023-02-28T05:20:04;15.10;;;6.30;;
73672;SDS011;61972;19.480;-99.240;2023-02-28T05:25:45;20.63;;;5.68;;
73672;SDS011;61972;19.480;-99.240;2023-02-28T05:28:16;16.33;;;5.57;;
73672;SDS011;61972;19.480;-99.240;2023-02-28T05:40:30;18.02;;;5.40;;
73672;SDS011;61972;19.480;-99.240;2023-02-28T05:42:56;14.33;;;5.80;;
73672;SDS011;61972;19.480;-99.240;2023-02-28T05:45:25;13.43;;;5.35;;
73672;SDS011;61972;19.480;-99.240;2023-02-28T05:47:54;13.10;;;5.40;;
73672;SDS011;61972;19.480;-99.240;2023-02-28T05:50:21;11.63;;;5.15;;
73672;SDS011;61972;19.480;-99.240;2023-02-28T05:52:50;12.70;;;5.25;;
73672;SDS011;61972;19.480;-99.240;2023-02-28T05:55:17;12.03;;;5.30;;
73672;SDS011;61972;19.480;-99.240;2023-02-28T05:57:44;12.18;;;5.20;;
73672;SDS011;61972;19.480;-99.240;2023-02-28T06:00:10;9.88;;;4.93;;
73672;SDS011;61972;19.480;-99.240;2023-02-28T06:02:40;13.20;;;5.18;;
73672;SDS011;61972;19.480;-99.240;2023-02-28T06:05:13;13.70;;;4.88;;
73672;SDS011;61972;19.480;-99.240;2023-02-28T06:07:43;13.10;;;5.13;;
73672;SDS011;61972;19.480;-99.240;2023-02-28T06:10:10;9.60;;;4.85;;
73672;SDS011;61972;19.480;-99.240;2023-02-28T06:12:39;9.48;;;4.65;;
73672;SDS011;61972;19.480;-99.240;2023-02-28T06:15:12;10.48;;;4.78;;
73672;SDS011;61972;19.480;-99.240;2023-02-28T06:17:40;10.68;;;4.70;;
73672;SDS011;61972;19.480;-99.240;2023-02-28T06:20:15;13.13;;;4.60;;
73672;SDS011;61972;19.480;-99.240;2023-02-28T06:22:57;10.52;;;4.93;;
73672;SDS011;61972;19.480;-99.240;2023-02-28T06:25:29;12.60;;;4.57;;
73672;SDS011;61972;19.480;-99.240;2023-02-28T06:27:55;10.05;;;4.85;;
73672;SDS011;61972;19.480;-99.240;2023-02-28T06:30:21;11.00;;;5.13;;
73672;SDS011;61972;19.480;-99.240;2023-02-28T06:32:52;12.27;;;5.07;;
73672;SDS011;61972;19.480;-99.240;2023-02-28T06:35:18;11.10;;;4.78;;
73672;SDS011;61972;19.480;-99.240;2023-02-28T06:37:54;8.05;;;4.28;;
73672;SDS011;61972;19.480;-99.240;2023-02-28T06:40:20;9.50;;;4.65;;
73672;SDS011;61972;19.480;-99.240;2023-02-28T06:42:46;7.80;;;4.60;;
73672;SDS011;61972;19.480;-99.240;2023-02-28T06:45:12;8.83;;;4.50;;
73672;SDS011;61972;19.480;-99.240;2023-02-28T06:47:39;9.25;;;4.47;;
73672;SDS011;61972;19.480;-99.240;2023-02-28T06:50:06;9.50;;;4.78;;
73672;SDS011;61972;19.480;-99.240;2023-02-28T06:52:36;8.85;;;4.53;;
73672;SDS011;61972;19.480;-99.240;2023-02-28T06:55:04;8.43;;;4.50;;
73672;SDS011;61972;19.480;-99.240;2023-02-28T06:57:32;7.63;;;4.40;;
73672;SDS011;61972;19.480;-99.240;2023-02-28T07:00:00;6.57;;;4.05;;
73672;SDS011;61972;19.480;-99.240;2023-02-28T07:02:29;8.95;;;4.70;;
73672;SDS011;61972;19.480;-99.240;2023-02-28T07:04:59;8.32;;;4.20;;
73672;SDS011;61972;19.480;-99.240;2023-02-28T07:07:25;9.20;;;4.20;;
73672;SDS011;61972;19.480;-99.240;2023-02-28T07:09:51;6.50;;;3.80;;
73672;SDS011;61972;19.480;-99.240;2023-02-28T07:12:18;7.43;;;4.30;;
73672;SDS011;61972;19.480;-99.240;2023-02-28T07:14:44;7.60;;;4.55;;
73672;SDS011;61972;19.480;-99.240;2023-02-28T07:17:10;9.15;;;4.20;;
73672;SDS011;61972;19.480;-99.240;2023-02-28T07:19:38;8.27;;;4.43;;
73672;SDS011;61972;19.480;-99.240;2023-02-28T07:22:04;6.47;;;3.83;;
73672;SDS011;61972;19.480;-99.240;2023-02-28T07:24:33;6.78;;;4.30;;
73672;SDS011;61972;19.480;-99.240;2023-02-28T07:26:59;8.82;;;4.28;;
73672;SDS011;61972;19.480;-99.240;2023-02-28T07:29:28;9.82;;;4.43;;
73672;SDS011;61972;19.480;-99.240;2023-02-28T07:31:55;7.43;;;4.40;;
73672;SDS011;61972;19.480;-99.240;2023-02-28T07:34:21;6.27;;;3.70;;
73672;SDS011;61972;19.480;-99.240;2023-02-28T07:36:48;7.65;;;4.07;;
73672;SDS011;61972;19.480;-99.240;2023-02-28T07:39:18;9.23;;;3.97;;
73672;SDS011;61972;19.480;-99.240;2023-02-28T07:41:45;7.35;;;3.70;;
73672;SDS011;61972;19.480;-99.240;2023-02-28T07:44:11;6.18;;;4.03;;
73672;SDS011;61972;19.480;-99.240;2023-02-28T07:46:38;5.93;;;3.40;;
73672;SDS011;61972;19.480;-99.240;2023-02-28T07:49:04;7.22;;;3.88;;
73672;SDS011;61972;19.480;-99.240;2023-02-28T07:51:31;6.80;;;4.00;;
73672;SDS011;61972;19.480;-99.240;2023-02-28T07:53:57;7.50;;;3.88;;
73672;SDS011;61972;19.480;-99.240;2023-02-28T07:56:23;7.70;;;4.05;;
73672;SDS011;61972;19.480;-99.240;2023-02-28T07:58:49;6.87;;;3.60;;
73672;SDS011;61972;19.480;-99.240;2023-02-28T08:01:16;8.43;;;3.80;;
73672;SDS011;61972;19.480;-99.240;2023-02-28T08:03:42;6.57;;;3.83;;
73672;SDS011;61972;19.480;-99.240;2023-02-28T08:06:14;8.32;;;3.85;;
73672;SDS011;61972;19.480;-99.240;2023-02-28T08:08:42;6.32;;;3.70;;
73672;SDS011;61972;19.480;-99.240;2023-02-28T08:11:11;7.10;;;3.40;;
73672;SDS011;61972;19.480;-99.240;2023-02-28T08:13:37;6.93;;;4.00;;
73672;SDS011;61972;19.480;-99.240;2023-02-28T08:16:06;8.52;;;4.15;;
73672;SDS011;61972;19.480;-99.240;2023-02-28T08:18:34;8.27;;;3.80;;
73672;SDS011;61972;19.480;-99.240;2023-02-28T08:21:09;6.38;;;3.80;;
73672;SDS011;61972;19.480;-99.240;2023-02-28T08:23:38;5.77;;;3.40;;
73672;SDS011;61972;19.480;-99.240;2023-02-28T08:26:04;8.27;;;3.80;;
73672;SDS011;61972;19.480;-99.240;2023-02-28T08:28:30;7.45;;;3.72;;
73672;SDS011;61972;19.480;-99.240;2023-02-28T08:30:57;6.13;;;3.80;;
73672;SDS011;61972;19.480;-99.240;2023-02-28T08:33:24;8.13;;;3.97;;
73672;SDS011;61972;19.480;-99.240;2023-02-28T08:35:52;5.70;;;3.53;;
73672;SDS011;61972;19.480;-99.240;2023-02-28T08:38:20;6.07;;;3.60;;
73672;SDS011;61972;19.480;-99.240;2023-02-28T08:40:46;6.78;;;3.60;;
73672;SDS011;61972;19.480;-99.240;2023-02-28T08:43:12;7.53;;;3.60;;
73672;SDS011;61972;19.480;-99.240;2023-02-28T08:45:38;7.68;;;3.47;;
73672;SDS011;61972;19.480;-99.240;2023-02-28T08:48:04;5.07;;;3.40;;
73672;SDS011;61972;19.480;-99.240;2023-02-28T08:50:30;6.20;;;3.25;;
73672;SDS011;61972;19.480;-99.240;2023-02-28T08:52:56;5.88;;;3.40;;
73672;SDS011;61972;19.480;-99.240;2023-02-28T08:55:23;6.38;;;3.25;;
73672;SDS011;61972;19.480;-99.240;2023-02-28T08:57:55;8.23;;;3.58;;
73672;SDS011;61972;19.480;-99.240;2023-02-28T09:00:21;5.93;;;3.47;;
73672;SDS011;61972;19.480;-99.240;2023-02-28T09:02:48;5.40;;;3.25;;
73672;SDS011;61972;19.480;-99.240;2023-02-28T09:05:14;7.63;;;3.78;;
73672;SDS011;61972;19.480;-99.240;2023-02-28T09:07:43;5.93;;;3.35;;
73672;SDS011;61972;19.480;-99.240;2023-02-28T09:10:09;5.95;;;3.53;;
73672;SDS011;61972;19.480;-99.240;2023-02-28T09:12:35;5.87;;;3.50;;
73672;SDS011;61972;19.480;-99.240;2023-02-28T09:15:02;6.15;;;3.35;;
73672;SDS011;61972;19.480;-99.240;2023-02-28T09:17:32;5.35;;;3.30;;
73672;SDS011;61972;19.480;-99.240;2023-02-28T09:20:16;5.85;;;3.25;;
73672;SDS011;61972;19.480;-99.240;2023-02-28T09:22:45;6.38;;;3.50;;
73672;SDS011;61972;19.480;-99.240;2023-02-28T09:25:11;6.17;;;3.20;;
73672;SDS011;61972;19.480;-99.240;2023-02-28T09:27:37;5.57;;;3.25;;
73672;SDS011;61972;19.480;-99.240;2023-02-28T09:30:13;5.63;;;3.35;;
73672;SDS011;61972;19.480;-99.240;2023-02-28T09:33:00;6.53;;;3.47;;
73672;SDS011;61972;19.480;-99.240;2023-02-28T09:35:26;10.35;;;3.40;;
73672;SDS011;61972;19.480;-99.240;2023-02-28T09:37:54;5.20;;;3.03;;
73672;SDS011;61972;19.480;-99.240;2023-02-28T09:40:21;5.57;;;2.83;;
73672;SDS011;61972;19.480;-99.240;2023-02-28T09:42:49;8.73;;;3.72;;
73672;SDS011;61972;19.480;-99.240;2023-02-28T09:45:22;5.30;;;3.20;;
73672;SDS011;61972;19.480;-99.240;2023-02-28T09:48:04;5.38;;;3.28;;
73672;SDS011;61972;19.480;-99.240;2023-02-28T09:53:22;5.40;;;2.90;;
73672;SDS011;61972;19.480;-99.240;2023-02-28T09:56:15;4.32;;;2.80;;
73672;SDS011;61972;19.480;-99.240;2023-02-28T09:58:56;5.43;;;2.90;;
73672;SDS011;61972;19.480;-99.240;2023-02-28T10:01:31;6.10;;;3.10;;
73672;SDS011;61972;19.480;-99.240;2023-02-28T10:04:14;5.50;;;3.20;;
73672;SDS011;61972;19.480;-99.240;2023-02-28T10:06:46;4.50;;;2.85;;
73672;SDS011;61972;19.480;-99.240;2023-02-28T10:09:17;5.18;;;3.00;;
73672;SDS011;61972;19.480;-99.240;2023-02-28T10:11:48;5.45;;;3.10;;
73672;SDS011;61972;19.480;-99.240;2023-02-28T10:17:02;5.57;;;3.40;;
73672;SDS011;61972;19.480;-99.240;2023-02-28T10:19:35;4.43;;;2.95;;
73672;SDS011;61972;19.480;-99.240;2023-02-28T10:22:10;4.90;;;3.20;;
73672;SDS011;61972;19.480;-99.240;2023-02-28T10:27:17;4.70;;;2.80;;
73672;SDS011;61972;19.480;-99.240;2023-02-28T10:29:52;6.33;;;3.57;;
73672;SDS011;61972;19.480;-99.240;2023-02-28T10:32:23;4.75;;;3.28;;
73672;SDS011;61972;19.480;-99.240;2023-02-28T10:34:59;4.38;;;2.75;;
73672;SDS011;61972;19.480;-99.240;2023-02-28T10:37:30;4.65;;;2.90;;
73672;SDS011;61972;19.480;-99.240;2023-02-28T10:39:57;5.38;;;2.80;;
73672;SDS011;61972;19.480;-99.240;2023-02-28T10:42:25;5.43;;;3.10;;
73672;SDS011;61972;19.480;-99.240;2023-02-28T10:45:05;5.10;;;3.10;;
73672;SDS011;61972;19.480;-99.240;2023-02-28T10:47:32;4.15;;;2.78;;
73672;SDS011;61972;19.480;-99.240;2023-02-28T10:50:01;4.20;;;2.70;;
73672;SDS011;61972;19.480;-99.240;2023-02-28T10:52:37;4.85;;;3.10;;
73672;SDS011;61972;19.480;-99.240;2023-02-28T10:55:22;5.33;;;3.00;;
73672;SDS011;61972;19.480;-99.240;2023-02-28T10:57:50;4.05;;;2.88;;
73672;SDS011;61972;19.480;-99.240;2023-02-28T11:00:22;5.13;;;3.20;;
73672;SDS011;61972;19.480;-99.240;2023-02-28T11:02:50;4.97;;;3.00;;
73672;SDS011;61972;19.480;-99.240;2023-02-28T11:07:54;4.43;;;2.77;;
73672;SDS011;61972;19.480;-99.240;2023-02-28T11:10:24;4.57;;;2.85;;
73672;SDS011;61972;19.480;-99.240;2023-02-28T11:12:57;5.38;;;2.90;;
73672;SDS011;61972;19.480;-99.240;2023-02-28T11:15:31;4.90;;;2.92;;
73672;SDS011;61972;19.480;-99.240;2023-02-28T11:20:53;3.70;;;2.70;;
73672;SDS011;61972;19.480;-99.240;2023-02-28T11:23:25;4.57;;;2.80;;
73672;SDS011;61972;19.480;-99.240;2023-02-28T11:25:59;4.75;;;3.10;;
73672;SDS011;61972;19.480;-99.240;2023-02-28T11:28:31;6.22;;;3.00;;
73672;SDS011;61972;19.480;-99.240;2023-02-28T11:33:54;3.80;;;2.70;;
73672;SDS011;61972;19.480;-99.240;2023-02-28T11:38:50;4.43;;;2.63;;
73672;SDS011;61972;19.480;-99.240;2023-02-28T11:47:17;3.77;;;2.43;;
73672;SDS011;61972;19.480;-99.240;2023-02-28T11:53:01;5.50;;;2.90;;
73672;SDS011;61972;19.480;-99.240;2023-02-28T11:55:39;3.97;;;2.80;;
73672;SDS011;61972;19.480;-99.240;2023-02-28T12:03:44;4.32;;;2.63;;
73672;SDS011;61972;19.480;-99.240;2023-02-28T12:11:55;5.05;;;2.90;;
73672;SDS011;61972;19.480;-99.240;2023-02-28T12:28:24;4.87;;;2.53;;
73672;SDS011;61972;19.480;-99.240;2023-02-28T12:30:58;4.65;;;2.95;;
73672;SDS011;61972;19.480;-99.240;2023-02-28T12:33:31;4.50;;;2.70;;
73672;SDS011;61972;19.480;-99.240;2023-02-28T12:36:03;3.95;;;2.70;;
73672;SDS011;61972;19.480;-99.240;2023-02-28T12:38:40;3.80;;;2.70;;
73672;SDS011;61972;19.480;-99.240;2023-02-28T12:41:13;4.23;;;2.50;;
73672;SDS011;61972;19.480;-99.240;2023-02-28T12:43:57;4.40;;;2.60;;
73672;SDS011;61972;19.480;-99.240;2023-02-28T12:46:32;4.53;;;2.92;;
73672;SDS011;61972;19.480;-99.240;2023-02-28T12:49:06;4.30;;;2.65;;
73672;SDS011;61972;19.480;-99.240;2023-02-28T12:51:37;3.75;;;2.40;;
73672;SDS011;61972;19.480;-99.240;2023-02-28T13:11:02;4.13;;;2.67;;
73672;SDS011;61972;19.480;-99.240;2023-02-28T13:13:29;4.30;;;2.80;;
73672;SDS011;61972;19.480;-99.240;2023-02-28T13:15:58;2.83;;;2.17;;
73672;SDS011;61972;19.480;-99.240;2023-02-28T13:18:38;3.80;;;2.45;;
73672;SDS011;61972;19.480;-99.240;2023-02-28T13:21:08;3.93;;;2.50;;
73672;SDS011;61972;19.480;-99.240;2023-02-28T13:34:26;4.37;;;2.50;;
73672;SDS011;61972;19.480;-99.240;2023-02-28T13:37:54;3.70;;;2.60;;
73672;SDS011;61972;19.480;-99.240;2023-02-28T13:39:58;5.25;;;2.88;;
73672;SDS011;61972;19.480;-99.240;2023-02-28T13:42:48;18.52;;;6.70;;
73672;SDS011;61972;19.480;-99.240;2023-02-28T13:48:48;14.60;;;6.43;;
73672;SDS011;61972;19.480;-99.240;2023-02-28T13:57:02;11.13;;;5.85;;
73672;SDS011;61972;19.480;-99.240;2023-02-28T14:02:24;12.60;;;6.43;;
73672;SDS011;61972;19.480;-99.240;2023-02-28T14:07:56;13.75;;;6.22;;
73672;SDS011;61972;19.480;-99.240;2023-02-28T14:10:25;11.35;;;6.20;;
73672;SDS011;61972;19.480;-99.240;2023-02-28T14:18:14;11.88;;;5.53;;
73672;SDS011;61972;19.480;-99.240;2023-02-28T14:20:49;9.45;;;5.78;;
73672;SDS011;61972;19.480;-99.240;2023-02-28T14:29:17;9.30;;;5.33;;
73672;SDS011;61972;19.480;-99.240;2023-02-28T14:32:15;9.50;;;5.40;;
73672;SDS011;61972;19.480;-99.240;2023-02-28T14:37:43;9.38;;;5.30;;
73672;SDS011;61972;19.480;-99.240;2023-02-28T14:43:21;7.60;;;5.13;;
73672;SDS011;61972;19.480;-99.240;2023-02-28T14:45:53;8.30;;;5.03;;
73672;SDS011;61972;19.480;-99.240;2023-02-28T14:48:22;10.27;;;4.85;;
73672;SDS011;61972;19.480;-99.240;2023-02-28T14:50:52;8.93;;;5.15;;
73672;SDS011;61972;19.480;-99.240;2023-02-28T14:53:21;9.02;;;5.45;;
73672;SDS011;61972;19.480;-99.240;2023-02-28T14:55:50;8.77;;;4.97;;
73672;SDS011;61972;19.480;-99.240;2023-02-28T14:58:27;8.88;;;4.88;;
73672;SDS011;61972;19.480;-99.240;2023-02-28T15:00:57;8.68;;;5.03;;
73672;SDS011;61972;19.480;-99.240;2023-02-28T15:03:29;8.65;;;4.90;;
73672;SDS011;61972;19.480;-99.240;2023-02-28T15:06:01;10.30;;;5.15;;
73672;SDS011;61972;19.480;-99.240;2023-02-28T15:08:29;8.90;;;4.93;;
73672;SDS011;61972;19.480;-99.240;2023-02-28T15:11:07;8.65;;;4.75;;
73672;SDS011;61972;19.480;-99.240;2023-02-28T15:13:54;8.05;;;4.53;;
73672;SDS011;61972;19.480;-99.240;2023-02-28T15:16:25;8.32;;;5.00;;
73672;SDS011;61972;19.480;-99.240;2023-02-28T15:19:00;7.88;;;5.22;;
73672;SDS011;61972;19.480;-99.240;2023-02-28T15:21:32;8.40;;;5.07;;
73672;SDS011;61972;19.480;-99.240;2023-02-28T15:24:03;7.57;;;4.88;;
73672;SDS011;61972;19.480;-99.240;2023-02-28T15:26:39;10.13;;;5.03;;
73672;SDS011;61972;19.480;-99.240;2023-02-28T15:29:10;8.55;;;4.57;;
73672;SDS011;61972;19.480;-99.240;2023-02-28T15:31:48;8.63;;;4.93;;
73672;SDS011;61972;19.480;-99.240;2023-02-28T15:34:39;9.00;;;4.80;;
73672;SDS011;61972;19.480;-99.240;2023-02-28T15:40:46;7.32;;;4.43;;
73672;SDS011;61972;19.480;-99.240;2023-02-28T15:46:05;7.68;;;4.50;;
73672;SDS011;61972;19.480;-99.240;2023-02-28T15:48:53;6.93;;;4.30;;
73672;SDS011;61972;19.480;-99.240;2023-02-28T15:52:03;7.93;;;4.55;;
73672;SDS011;61972;19.480;-99.240;2023-02-28T15:54:15;7.60;;;4.72;;
73672;SDS011;61972;19.480;-99.240;2023-02-28T15:56:49;8.00;;;4.65;;
73672;SDS011;61972;19.480;-99.240;2023-02-28T15:59:19;7.75;;;4.35;;
73672;SDS011;61972;19.480;-99.240;2023-02-28T16:02:01;7.50;;;4.50;;
73672;SDS011;61972;19.480;-99.240;2023-02-28T16:04:29;8.52;;;4.60;;
73672;SDS011;61972;19.480;-99.240;2023-02-28T16:09:27;8.32;;;4.10;;
73672;SDS011;61972;19.480;-99.240;2023-02-28T16:11:55;8.02;;;4.43;;
73672;SDS011;61972;19.480;-99.240;2023-02-28T16:14:26;9.83;;;3.90;;
73672;SDS011;61972;19.480;-99.240;2023-02-28T16:16:56;10.43;;;3.72;;
73672;SDS011;61972;19.480;-99.240;2023-02-28T16:19:27;11.23;;;4.60;;
73672;SDS011;61972;19.480;-99.240;2023-02-28T16:21:54;20.00;;;9.27;;
73672;SDS011;61972;19.480;-99.240;2023-02-28T16:24:20;24.83;;;11.70;;
73672;SDS011;61972;19.480;-99.240;2023-02-28T16:26:47;27.23;;;12.27;;
73672;SDS011;61972;19.480;-99.240;2023-02-28T16:29:23;24.92;;;12.85;;
73672;SDS011;61972;19.480;-99.240;2023-02-28T16:31:52;21.23;;;11.60;;
73672;SDS011;61972;19.480;-99.240;2023-02-28T16:34:19;23.67;;;11.82;;
73672;SDS011;61972;19.480;-99.240;2023-02-28T16:36:47;22.55;;;12.50;;
73672;SDS011;61972;19.480;-99.240;2023-02-28T16:39:14;24.23;;;12.70;;
73672;SDS011;61972;19.480;-99.240;2023-02-28T16:41:44;23.67;;;12.40;;
73672;SDS011;61972;19.480;-99.240;2023-02-28T16:44:20;24.58;;;12.35;;
73672;SDS011;61972;19.480;-99.240;2023-02-28T16:46:51;19.63;;;11.73;;
73672;SDS011;61972;19.480;-99.240;2023-02-28T16:49:21;23.83;;;11.98;;
73672;SDS011;61972;19.480;-99.240;2023-02-28T16:51:47;20.20;;;11.23;;
73672;SDS011;61972;19.480;-99.240;2023-02-28T16:54:18;21.85;;;10.98;;
73672;SDS011;61972;19.480;-99.240;2023-02-28T16:56:46;20.42;;;11.82;;
73672;SDS011;61972;19.480;-99.240;2023-02-28T16:59:13;48.38;;;20.98;;
73672;SDS011;61972;19.480;-99.240;2023-02-28T17:01:44;48.90;;;20.98;;
73672;SDS011;61972;19.480;-99.240;2023-02-28T17:04:10;41.10;;;19.67;;
73672;SDS011;61972;19.480;-99.240;2023-02-28T17:06:37;41.92;;;19.42;;
73672;SDS011;61972;19.480;-99.240;2023-02-28T17:09:03;38.17;;;17.83;;
73672;SDS011;61972;19.480;-99.240;2023-02-28T17:11:33;34.08;;;15.30;;
73672;SDS011;61972;19.480;-99.240;2023-02-28T17:13:59;36.25;;;15.18;;
73672;SDS011;61972;19.480;-99.240;2023-02-28T17:16:29;28.43;;;14.20;;
73672;SDS011;61972;19.480;-99.240;2023-02-28T17:19:08;26.80;;;13.68;;
73672;SDS011;61972;19.480;-99.240;2023-02-28T17:21:37;27.35;;;13.25;;
73672;SDS011;61972;19.480;-99.240;2023-02-28T17:24:28;28.17;;;12.50;;
73672;SDS011;61972;19.480;-99.240;2023-02-28T17:27:08;22.42;;;11.57;;
73672;SDS011;61972;19.480;-99.240;2023-02-28T17:29:42;26.00;;;12.53;;
73672;SDS011;61972;19.480;-99.240;2023-02-28T17:32:15;21.20;;;11.27;;
73672;SDS011;61972;19.480;-99.240;2023-02-28T17:34:47;19.10;;;10.75;;